sensor_id;sensor_type;location;lat;lon;timestamp;P1;P2;P0
69349;PMS5003;64554;43.452;4.934;2024-02-21T00:00:47;12.00;9.00;6.00
69349;PMS5003;64554;43.452;4.934;2024-02-21T00:03:14;9.00;9.00;6.00
69349;PMS5003;64554;43.452;4.934;2024-02-21T00:05:40;9.50;9.50;7.00
69349;PMS5003;64554;43.452;4.934;2024-02-21T00:08:07;14.00;10.00;8.00
69349;PMS5003;64554;43.452;4.934;2024-02-21T00:10:34;9.40;8.40;6.00
69349;PMS5003;64554;43.452;4.934;2024-02-21T00:13:18;11.00;9.40;6.20
69349;PMS5003;64554;43.452;4.934;2024-02-21T00:15:45;11.00;10.00;7.00
69349;PMS5003;64554;43.452;4.934;2024-02-21T00:18:11;13.40;12.00;7.00
69349;PMS5003;64554;43.452;4.934;2024-02-21T00:20:38;14.50;13.50;8.00
69349;PMS5003;64554;43.452;4.934;2024-02-21T00:23:05;20.00;18.00;11.00
69349;PMS5003;64554;43.452;4.934;2024-02-21T00:25:31;17.25;14.00;8.00
69349;PMS5003;64554;43.452;4.934;2024-02-21T00:27:58;15.00;13.00;8.00
69349;PMS5003;64554;43.452;4.934;2024-02-21T00:30:24;13.00;12.00;7.00
69349;PMS5003;64554;43.452;4.934;2024-02-21T00:32:51;12.50;11.50;6.00
69349;PMS5003;64554;43.452;4.934;2024-02-21T00:35:17;8.00;6.75;5.00
69349;PMS5003;64554;43.452;4.934;2024-02-21T00:37:44;14.00;10.00;6.40
69349;PMS5003;64554;43.452;4.934;2024-02-21T00:40:10;9.40;8.00;5.00
69349;PMS5003;64554;43.452;4.934;2024-02-21T00:42:37;11.60;10.60;5.60
69349;PMS5003;64554;43.452;4.934;2024-02-21T00:45:03;13.00;10.00;6.00
69349;PMS5003;64554;43.452;4.934;2024-02-21T00:47:30;16.60;16.60;9.00
69349;PMS5003;64554;43.452;4.934;2024-02-21T00:49:57;13.00;12.00;7.00
69349;PMS5003;64554;43.452;4.934;2024-02-21T00:52:23;10.00;10.00;7.60
69349;PMS5003;64554;43.452;4.934;2024-02-21T00:54:50;12.60;6.60;5.60
69349;PMS5003;64554;43.452;4.934;2024-02-21T00:57:20;6.75;6.75;5.00
69349;PMS5003;64554;43.452;4.934;2024-02-21T00:59:46;9.00;7.00;5.00
69349;PMS5003;64554;43.452;4.934;2024-02-21T01:02:13;12.60;11.40;6.00
69349;PMS5003;64554;43.452;4.934;2024-02-21T01:04:40;9.80;7.20;5.80
69349;PMS5003;64554;43.452;4.934;2024-02-21T01:07:06;7.25;7.25;5.00
69349;PMS5003;64554;43.452;4.934;2024-02-21T01:09:33;6.00;6.00;4.20
69349;PMS5003;64554;43.452;4.934;2024-02-21T01:11:59;9.80;9.80;6.20
69349;PMS5003;64554;43.452;4.934;2024-02-21T01:14:26;10.80;9.00;6.00
69349;PMS5003;64554;43.452;4.934;2024-02-21T01:16:52;14.00;13.00;7.00
69349;PMS5003;64554;43.452;4.934;2024-02-21T01:19:19;8.75;7.00;5.00
69349;PMS5003;64554;43.452;4.934;2024-02-21T01:21:45;10.00;10.00;7.00
69349;PMS5003;64554;43.452;4.934;2024-02-21T01:24:12;6.80;6.80;5.00
69349;PMS5003;64554;43.452;4.934;2024-02-21T01:26:38;7.80;7.80;5.00
69349;PMS5003;64554;43.452;4.934;2024-02-21T01:29:04;8.00;8.00;5.00
69349;PMS5003;64554;43.452;4.934;2024-02-21T01:31:31;6.00;6.00;4.40
69349;PMS5003;64554;43.452;4.934;2024-02-21T01:33:57;9.75;8.25;4.25
69349;PMS5003;64554;43.452;4.934;2024-02-21T01:36:24;12.75;9.75;5.00
69349;PMS5003;64554;43.452;4.934;2024-02-21T01:38:50;9.20;9.20;6.00
69349;PMS5003;64554;43.452;4.934;2024-02-21T01:41:17;9.00;8.00;6.20
69349;PMS5003;64554;43.452;4.934;2024-02-21T01:43:43;10.80;8.20;6.00
69349;PMS5003;64554;43.452;4.934;2024-02-21T01:46:11;10.75;8.00;5.00
69349;PMS5003;64554;43.452;4.934;2024-02-21T01:48:37;13.00;11.60;6.40
69349;PMS5003;64554;43.452;4.934;2024-02-21T01:51:04;11.00;10.40;8.00
69349;PMS5003;64554;43.452;4.934;2024-02-21T01:53:32;11.00;11.00;7.00
69349;PMS5003;64554;43.452;4.934;2024-02-21T01:56:00;12.00;11.00;6.60
69349;PMS5003;64554;43.452;4.934;2024-02-21T01:58:27;10.25;10.00;7.50
69349;PMS5003;64554;43.452;4.934;2024-02-21T02:00:56;17.75;12.00;8.00
69349;PMS5003;64554;43.452;4.934;2024-02-21T02:03:22;11.00;10.00;7.40
69349;PMS5003;64554;43.452;4.934;2024-02-21T02:05:49;11.00;10.00;7.00
69349;PMS5003;64554;43.452;4.934;2024-02-21T02:08:17;15.75;14.75;9.00
69349;PMS5003;64554;43.452;4.934;2024-02-21T02:10:43;14.40;12.60;7.60
69349;PMS5003;64554;43.452;4.934;2024-02-21T02:13:10;13.60;12.60;8.60
69349;PMS5003;64554;43.452;4.934;2024-02-21T02:15:37;12.00;11.00;8.00
69349;PMS5003;64554;43.452;4.934;2024-02-21T02:18:04;10.00;10.00;8.00
69349;PMS5003;64554;43.452;4.934;2024-02-21T02:20:30;13.00;13.00;8.75
69349;PMS5003;64554;43.452;4.934;2024-02-21T02:22:58;11.80;11.80;7.00
69349;PMS5003;64554;43.452;4.934;2024-02-21T02:25:26;11.00;11.00;8.00
69349;PMS5003;64554;43.452;4.934;2024-02-21T02:27:53;12.00;11.20;7.00
69349;PMS5003;64554;43.452;4.934;2024-02-21T02:30:19;12.00;12.00;9.00
69349;PMS5003;64554;43.452;4.934;2024-02-21T02:32:46;13.00;11.00;9.00
69349;PMS5003;64554;43.452;4.934;2024-02-21T02:35:13;14.00;13.00;10.00
69349;PMS5003;64554;43.452;4.934;2024-02-21T02:37:39;11.60;11.00;8.00
69349;PMS5003;64554;43.452;4.934;2024-02-21T02:40:06;13.50;10.75;8.00
69349;PMS5003;64554;43.452;4.934;2024-02-21T02:42:33;11.60;11.40;9.00
69349;PMS5003;64554;43.452;4.934;2024-02-21T02:44:59;12.00;11.00;9.00
69349;PMS5003;64554;43.452;4.934;2024-02-21T02:47:26;17.00;16.00;9.00
69349;PMS5003;64554;43.452;4.934;2024-02-21T02:49:52;17.00;15.00;9.00
69349;PMS5003;64554;43.452;4.934;2024-02-21T02:52:19;14.50;13.00;8.00
69349;PMS5003;64554;43.452;4.934;2024-02-21T02:54:46;10.25;10.25;7.25
69349;PMS5003;64554;43.452;4.934;2024-02-21T02:57:18;11.00;11.00;7.00
69349;PMS5003;64554;43.452;4.934;2024-02-21T02:59:51;15.00;13.00;8.80
69349;PMS5003;64554;43.452;4.934;2024-02-21T03:02:17;14.00;14.00;9.00
69349;PMS5003;64554;43.452;4.934;2024-02-21T03:04:44;11.50;10.50;8.00
69349;PMS5003;64554;43.452;4.934;2024-02-21T03:07:10;15.25;10.25;7.25
69349;PMS5003;64554;43.452;4.934;2024-02-21T03:09:40;14.00;13.00;9.00
69349;PMS5003;64554;43.452;4.934;2024-02-21T03:12:06;17.40;15.40;12.00
69349;PMS5003;64554;43.452;4.934;2024-02-21T03:14:33;13.00;13.00;9.00
69349;PMS5003;64554;43.452;4.934;2024-02-21T03:16:59;14.33;12.33;8.33
69349;PMS5003;64554;43.452;4.934;2024-02-21T03:19:26;20.00;15.50;9.00
69349;PMS5003;64554;43.452;4.934;2024-02-21T03:21:53;16.50;16.50;10.00
69349;PMS5003;64554;43.452;4.934;2024-02-21T03:24:20;14.40;13.00;7.60
69349;PMS5003;64554;43.452;4.934;2024-02-21T03:26:47;13.00;13.00;8.25
69349;PMS5003;64554;43.452;4.934;2024-02-21T03:29:15;12.75;12.75;7.75
69349;PMS5003;64554;43.452;4.934;2024-02-21T03:31:42;11.00;11.00;6.50
69349;PMS5003;64554;43.452;4.934;2024-02-21T03:34:11;12.00;12.00;8.60
69349;PMS5003;64554;43.452;4.934;2024-02-21T03:36:38;11.25;11.00;8.00
69349;PMS5003;64554;43.452;4.934;2024-02-21T03:39:05;14.00;11.50;7.00
69349;PMS5003;64554;43.452;4.934;2024-02-21T03:41:31;13.60;13.60;9.00
69349;PMS5003;64554;43.452;4.934;2024-02-21T03:43:58;12.75;10.00;7.00
69349;PMS5003;64554;43.452;4.934;2024-02-21T03:46:24;11.00;9.60;7.00
69349;PMS5003;64554;43.452;4.934;2024-02-21T03:48:51;12.00;10.00;7.00
69349;PMS5003;64554;43.452;4.934;2024-02-21T03:51:18;11.00;9.00;7.00
69349;PMS5003;64554;43.452;4.934;2024-02-21T03:53:44;9.20;9.00;6.80
69349;PMS5003;64554;43.452;4.934;2024-02-21T03:56:11;14.00;13.00;6.00
69349;PMS5003;64554;43.452;4.934;2024-02-21T03:58:37;11.60;10.40;6.60
69349;PMS5003;64554;43.452;4.934;2024-02-21T04:01:04;9.00;9.00;6.00
69349;PMS5003;64554;43.452;4.934;2024-02-21T04:03:30;9.25;9.25;6.00
69349;PMS5003;64554;43.452;4.934;2024-02-21T04:05:57;14.00;9.50;7.00
69349;PMS5003;64554;43.452;4.934;2024-02-21T04:08:23;11.00;11.00;8.00
69349;PMS5003;64554;43.452;4.934;2024-02-21T04:10:50;11.75;10.00;7.00
69349;PMS5003;64554;43.452;4.934;2024-02-21T04:13:16;11.00;9.00;6.00
69349;PMS5003;64554;43.452;4.934;2024-02-21T04:15:43;11.60;8.60;6.00
69349;PMS5003;64554;43.452;4.934;2024-02-21T04:18:09;8.00;8.00;6.00
69349;PMS5003;64554;43.452;4.934;2024-02-21T04:20:36;8.25;8.25;5.25
69349;PMS5003;64554;43.452;4.934;2024-02-21T04:23:03;9.20;8.00;6.00
69349;PMS5003;64554;43.452;4.934;2024-02-21T04:25:29;10.00;10.00;7.00
69349;PMS5003;64554;43.452;4.934;2024-02-21T04:27:56;9.25;9.25;7.25
69349;PMS5003;64554;43.452;4.934;2024-02-21T04:30:22;10.20;9.40;7.00
69349;PMS5003;64554;43.452;4.934;2024-02-21T04:32:49;13.00;13.00;6.00
69349;PMS5003;64554;43.452;4.934;2024-02-21T04:35:15;10.20;9.40;7.00
69349;PMS5003;64554;43.452;4.934;2024-02-21T04:37:43;10.20;9.80;6.40
69349;PMS5003;64554;43.452;4.934;2024-02-21T04:40:09;15.00;11.00;6.00
69349;PMS5003;64554;43.452;4.934;2024-02-21T04:42:36;11.75;10.00;6.00
69349;PMS5003;64554;43.452;4.934;2024-02-21T04:45:03;10.00;10.00;7.00
69349;PMS5003;64554;43.452;4.934;2024-02-21T04:47:30;14.80;14.80;8.00
69349;PMS5003;64554;43.452;4.934;2024-02-21T04:49:56;10.20;10.20;7.00
69349;PMS5003;64554;43.452;4.934;2024-02-21T04:52:22;10.80;7.80;6.00
69349;PMS5003;64554;43.452;4.934;2024-02-21T04:54:49;11.20;11.20;7.80
69349;PMS5003;64554;43.452;4.934;2024-02-21T04:57:16;8.50;8.50;6.00
69349;PMS5003;64554;43.452;4.934;2024-02-21T04:59:44;10.00;10.00;6.00
69349;PMS5003;64554;43.452;4.934;2024-02-21T05:02:11;8.00;8.00;6.00
69349;PMS5003;64554;43.452;4.934;2024-02-21T05:04:40;10.50;10.00;7.00
69349;PMS5003;64554;43.452;4.934;2024-02-21T05:07:08;11.00;11.00;8.00
69349;PMS5003;64554;43.452;4.934;2024-02-21T05:09:34;10.80;9.20;5.00
69349;PMS5003;64554;43.452;4.934;2024-02-21T05:12:01;10.80;9.00;7.00
69349;PMS5003;64554;43.452;4.934;2024-02-21T05:14:27;11.50;10.50;7.00
69349;PMS5003;64554;43.452;4.934;2024-02-21T05:16:54;9.40;9.40;7.00
69349;PMS5003;64554;43.452;4.934;2024-02-21T05:19:20;13.00;13.00;9.00
69349;PMS5003;64554;43.452;4.934;2024-02-21T05:21:47;13.00;12.50;9.00
69349;PMS5003;64554;43.452;4.934;2024-02-21T05:24:13;14.20;12.20;9.20
69349;PMS5003;64554;43.452;4.934;2024-02-21T05:26:40;13.00;13.00;9.00
69349;PMS5003;64554;43.452;4.934;2024-02-21T05:29:06;11.00;11.00;8.00
69349;PMS5003;64554;43.452;4.934;2024-02-21T05:34:29;10.00;9.00;6.25
69349;PMS5003;64554;43.452;4.934;2024-02-21T05:36:55;9.00;9.00;7.00
69349;PMS5003;64554;43.452;4.934;2024-02-21T05:39:24;8.50;7.75;6.75
69349;PMS5003;64554;43.452;4.934;2024-02-21T05:41:50;10.00;7.00;6.00
69349;PMS5003;64554;43.452;4.934;2024-02-21T05:44:18;9.25;9.25;7.00
69349;PMS5003;64554;43.452;4.934;2024-02-21T05:46:45;13.20;10.00;6.60
69349;PMS5003;64554;43.452;4.934;2024-02-21T05:49:12;11.00;11.00;6.00
69349;PMS5003;64554;43.452;4.934;2024-02-21T05:51:39;9.25;9.25;6.25
69349;PMS5003;64554;43.452;4.934;2024-02-21T05:54:05;10.00;10.00;7.00
69349;PMS5003;64554;43.452;4.934;2024-02-21T05:56:33;17.00;15.00;11.50
69349;PMS5003;64554;43.452;4.934;2024-02-21T05:59:00;13.40;12.00;9.00
69349;PMS5003;64554;43.452;4.934;2024-02-21T06:01:27;14.00;12.00;8.00
69349;PMS5003;64554;43.452;4.934;2024-02-21T06:03:54;17.20;17.00;11.80
69349;PMS5003;64554;43.452;4.934;2024-02-21T06:06:21;48.75;39.50;26.25
69349;PMS5003;64554;43.452;4.934;2024-02-21T06:08:51;32.00;28.50;19.75
69349;PMS5003;64554;43.452;4.934;2024-02-21T06:11:18;39.25;34.50;21.50
69349;PMS5003;64554;43.452;4.934;2024-02-21T06:13:44;28.75;26.75;17.75
69349;PMS5003;64554;43.452;4.934;2024-02-21T06:16:11;28.25;27.25;15.00
69349;PMS5003;64554;43.452;4.934;2024-02-21T06:18:37;103.50;93.75;44.75
69349;PMS5003;64554;43.452;4.934;2024-02-21T06:21:04;53.60;42.80;25.60
69349;PMS5003;64554;43.452;4.934;2024-02-21T06:23:30;18.50;16.00;11.00
69349;PMS5003;64554;43.452;4.934;2024-02-21T06:25:57;23.20;20.00;13.00
69349;PMS5003;64554;43.452;4.934;2024-02-21T06:28:23;37.50;32.50;21.00
69349;PMS5003;64554;43.452;4.934;2024-02-21T06:30:50;26.50;25.00;19.75
69349;PMS5003;64554;43.452;4.934;2024-02-21T06:33:16;20.60;18.60;13.40
69349;PMS5003;64554;43.452;4.934;2024-02-21T06:35:43;20.00;19.00;13.00
69349;PMS5003;64554;43.452;4.934;2024-02-21T06:38:12;30.50;24.00;15.00
69349;PMS5003;64554;43.452;4.934;2024-02-21T06:40:39;23.00;22.00;11.00
69349;PMS5003;64554;43.452;4.934;2024-02-21T06:43:06;22.40;21.40;12.00
69349;PMS5003;64554;43.452;4.934;2024-02-21T06:45:33;37.00;32.20;20.00
69349;PMS5003;64554;43.452;4.934;2024-02-21T06:47:59;33.00;29.60;18.40
69349;PMS5003;64554;43.452;4.934;2024-02-21T06:50:26;38.00;33.50;20.00
69349;PMS5003;64554;43.452;4.934;2024-02-21T06:52:52;36.75;32.75;22.00
69349;PMS5003;64554;43.452;4.934;2024-02-21T06:55:19;34.20;32.00;22.00
69349;PMS5003;64554;43.452;4.934;2024-02-21T06:57:46;49.00;39.00;24.50
69349;PMS5003;64554;43.452;4.934;2024-02-21T07:00:14;45.40;38.40;22.00
69349;PMS5003;64554;43.452;4.934;2024-02-21T07:02:41;35.00;32.00;18.00
69349;PMS5003;64554;43.452;4.934;2024-02-21T07:05:07;20.00;19.00;13.00
69349;PMS5003;64554;43.452;4.934;2024-02-21T07:07:34;34.00;30.50;20.00
69349;PMS5003;64554;43.452;4.934;2024-02-21T07:10:02;25.40;25.40;17.20
69349;PMS5003;64554;43.452;4.934;2024-02-21T07:12:28;21.00;20.00;11.50
69349;PMS5003;64554;43.452;4.934;2024-02-21T07:14:54;29.80;28.40;18.80
69349;PMS5003;64554;43.452;4.934;2024-02-21T07:17:21;20.40;19.00;12.20
69349;PMS5003;64554;43.452;4.934;2024-02-21T07:19:48;17.00;15.00;7.50
69349;PMS5003;64554;43.452;4.934;2024-02-21T07:22:14;12.50;12.50;8.00
69349;PMS5003;64554;43.452;4.934;2024-02-21T07:24:41;13.60;11.40;8.00
69349;PMS5003;64554;43.452;4.934;2024-02-21T07:27:07;12.60;12.60;7.00
69349;PMS5003;64554;43.452;4.934;2024-02-21T07:29:34;20.00;18.50;12.75
69349;PMS5003;64554;43.452;4.934;2024-02-21T07:32:00;12.40;12.40;10.00
69349;PMS5003;64554;43.452;4.934;2024-02-21T07:34:27;13.00;11.00;7.00
69349;PMS5003;64554;43.452;4.934;2024-02-21T07:36:53;13.20;13.20;8.80
69349;PMS5003;64554;43.452;4.934;2024-02-21T07:39:20;10.00;8.60;7.00
69349;PMS5003;64554;43.452;4.934;2024-02-21T07:41:46;11.25;10.25;8.00
69349;PMS5003;64554;43.452;4.934;2024-02-21T07:44:17;8.20;8.20;6.00
69349;PMS5003;64554;43.452;4.934;2024-02-21T07:46:43;8.00;8.00;5.50
69349;PMS5003;64554;43.452;4.934;2024-02-21T07:49:10;11.50;10.75;7.50
69349;PMS5003;64554;43.452;4.934;2024-02-21T07:51:36;8.00;8.00;7.00
69349;PMS5003;64554;43.452;4.934;2024-02-21T07:54:03;15.60;13.40;8.00
69349;PMS5003;64554;43.452;4.934;2024-02-21T07:56:30;12.00;11.00;8.50
69349;PMS5003;64554;43.452;4.934;2024-02-21T07:58:57;18.50;17.00;11.00
69349;PMS5003;64554;43.452;4.934;2024-02-21T08:01:24;16.00;14.50;6.50
69349;PMS5003;64554;43.452;4.934;2024-02-21T08:03:50;13.75;13.75;7.75
69349;PMS5003;64554;43.452;4.934;2024-02-21T08:06:17;12.00;10.00;6.00
69349;PMS5003;64554;43.452;4.934;2024-02-21T08:08:43;12.40;12.40;8.00
69349;PMS5003;64554;43.452;4.934;2024-02-21T08:11:10;13.00;11.50;8.00
69349;PMS5003;64554;43.452;4.934;2024-02-21T08:13:36;11.50;10.50;7.00
69349;PMS5003;64554;43.452;4.934;2024-02-21T08:16:03;12.40;10.60;7.40
69349;PMS5003;64554;43.452;4.934;2024-02-21T08:18:30;8.40;8.40;7.00
69349;PMS5003;64554;43.452;4.934;2024-02-21T08:20:56;11.60;10.60;8.40
69349;PMS5003;64554;43.452;4.934;2024-02-21T08:23:23;8.00;8.00;5.00
69349;PMS5003;64554;43.452;4.934;2024-02-21T08:25:50;11.25;11.25;8.00
69349;PMS5003;64554;43.452;4.934;2024-02-21T08:28:16;9.60;9.00;5.00
69349;PMS5003;64554;43.452;4.934;2024-02-21T08:30:43;9.50;9.50;7.50
69349;PMS5003;64554;43.452;4.934;2024-02-21T08:33:14;19.00;19.00;13.75
69349;PMS5003;64554;43.452;4.934;2024-02-21T08:35:42;12.20;12.20;9.00
69349;PMS5003;64554;43.452;4.934;2024-02-21T08:38:08;14.60;13.00;9.40
69349;PMS5003;64554;43.452;4.934;2024-02-21T08:40:35;11.50;11.50;8.00
69349;PMS5003;64554;43.452;4.934;2024-02-21T08:43:03;14.40;12.00;7.00
69349;PMS5003;64554;43.452;4.934;2024-02-21T08:45:30;14.67;14.00;8.33
69349;PMS5003;64554;43.452;4.934;2024-02-21T08:47:56;14.25;13.25;8.75
69349;PMS5003;64554;43.452;4.934;2024-02-21T08:50:23;10.50;9.50;7.00
69349;PMS5003;64554;43.452;4.934;2024-02-21T08:52:54;10.80;10.80;6.80
69349;PMS5003;64554;43.452;4.934;2024-02-21T08:55:21;14.40;14.40;8.40
69349;PMS5003;64554;43.452;4.934;2024-02-21T08:57:48;13.75;11.75;9.00
69349;PMS5003;64554;43.452;4.934;2024-02-21T09:00:15;9.40;9.40;7.80
69349;PMS5003;64554;43.452;4.934;2024-02-21T09:02:42;11.75;9.00;7.00
69349;PMS5003;64554;43.452;4.934;2024-02-21T09:05:12;14.00;11.00;8.00
69349;PMS5003;64554;43.452;4.934;2024-02-21T09:07:38;14.00;12.50;9.50
69349;PMS5003;64554;43.452;4.934;2024-02-21T09:10:05;12.00;12.00;9.00
69349;PMS5003;64554;43.452;4.934;2024-02-21T09:12:32;10.40;9.20;7.20
69349;PMS5003;64554;43.452;4.934;2024-02-21T09:14:59;12.00;12.00;8.00
69349;PMS5003;64554;43.452;4.934;2024-02-21T09:17:26;13.25;11.75;8.75
69349;PMS5003;64554;43.452;4.934;2024-02-21T09:19:56;21.20;18.80;11.00
69349;PMS5003;64554;43.452;4.934;2024-02-21T09:22:26;26.40;24.60;16.00
69349;PMS5003;64554;43.452;4.934;2024-02-21T09:24:52;16.75;16.75;10.50
69349;PMS5003;64554;43.452;4.934;2024-02-21T09:27:19;13.50;13.00;8.50
69349;PMS5003;64554;43.452;4.934;2024-02-21T09:29:45;11.00;11.00;9.00
69349;PMS5003;64554;43.452;4.934;2024-02-21T09:32:12;11.25;10.25;8.00
69349;PMS5003;64554;43.452;4.934;2024-02-21T09:34:40;18.00;17.60;11.60
69349;PMS5003;64554;43.452;4.934;2024-02-21T09:37:07;11.00;11.00;8.00
69349;PMS5003;64554;43.452;4.934;2024-02-21T09:39:33;12.40;12.40;9.40
69349;PMS5003;64554;43.452;4.934;2024-02-21T09:42:02;11.60;11.60;7.60
69349;PMS5003;64554;43.452;4.934;2024-02-21T09:44:33;10.80;10.80;7.80
69349;PMS5003;64554;43.452;4.934;2024-02-21T09:47:02;11.50;11.50;7.00
69349;PMS5003;64554;43.452;4.934;2024-02-21T09:49:32;10.00;10.00;7.00
69349;PMS5003;64554;43.452;4.934;2024-02-21T09:52:04;10.00;10.00;8.00
69349;PMS5003;64554;43.452;4.934;2024-02-21T09:54:32;11.00;9.00;6.00
69349;PMS5003;64554;43.452;4.934;2024-02-21T09:57:02;9.20;9.20;7.00
69349;PMS5003;64554;43.452;4.934;2024-02-21T09:59:31;6.40;6.40;5.40
69349;PMS5003;64554;43.452;4.934;2024-02-21T10:01:58;10.40;10.00;7.00
69349;PMS5003;64554;43.452;4.934;2024-02-21T10:04:29;7.00;7.00;4.60
69349;PMS5003;64554;43.452;4.934;2024-02-21T10:06:56;10.20;8.60;5.60
69349;PMS5003;64554;43.452;4.934;2024-02-21T10:11:50;8.40;6.00;5.00
69349;PMS5003;64554;43.452;4.934;2024-02-21T10:14:17;7.00;5.00;4.00
69349;PMS5003;64554;43.452;4.934;2024-02-21T10:16:46;7.00;6.00;4.00
69349;PMS5003;64554;43.452;4.934;2024-02-21T10:19:19;5.00;5.00;4.00
69349;PMS5003;64554;43.452;4.934;2024-02-21T10:21:59;5.80;5.00;3.00
69349;PMS5003;64554;43.452;4.934;2024-02-21T10:24:26;7.40;7.40;5.00
69349;PMS5003;64554;43.452;4.934;2024-02-21T10:27:01;10.00;7.40;4.60
69349;PMS5003;64554;43.452;4.934;2024-02-21T10:29:30;6.00;5.00;4.00
69349;PMS5003;64554;43.452;4.934;2024-02-21T10:32:04;6.50;6.50;4.50
69349;PMS5003;64554;43.452;4.934;2024-02-21T10:34:30;7.00;7.00;4.00
69349;PMS5003;64554;43.452;4.934;2024-02-21T10:37:03;8.20;8.00;5.60
69349;PMS5003;64554;43.452;4.934;2024-02-21T10:39:33;6.40;6.20;3.20
69349;PMS5003;64554;43.452;4.934;2024-02-21T10:42:00;8.80;7.00;5.00
69349;PMS5003;64554;43.452;4.934;2024-02-21T10:44:31;6.00;5.00;3.40
69349;PMS5003;64554;43.452;4.934;2024-02-21T10:46:58;7.00;6.00;5.00
69349;PMS5003;64554;43.452;4.934;2024-02-21T10:49:26;7.25;6.75;5.00
69349;PMS5003;64554;43.452;4.934;2024-02-21T10:52:15;8.60;6.60;3.60
69349;PMS5003;64554;43.452;4.934;2024-02-21T10:54:43;9.00;6.00;4.00
69349;PMS5003;64554;43.452;4.934;2024-02-21T10:57:11;7.00;7.00;5.00
69349;PMS5003;64554;43.452;4.934;2024-02-21T10:59:39;9.00;7.00;5.00
69349;PMS5003;64554;43.452;4.934;2024-02-21T11:02:06;9.80;7.60;4.60
69349;PMS5003;64554;43.452;4.934;2024-02-21T11:04:33;9.00;7.00;3.00
69349;PMS5003;64554;43.452;4.934;2024-02-21T11:07:04;5.00;5.00;3.50
69349;PMS5003;64554;43.452;4.934;2024-02-21T11:09:36;4.60;4.60;3.00
69349;PMS5003;64554;43.452;4.934;2024-02-21T11:12:03;4.00;4.00;3.00
69349;PMS5003;64554;43.452;4.934;2024-02-21T11:14:30;7.50;6.00;4.00
69349;PMS5003;64554;43.452;4.934;2024-02-21T11:16:59;8.75;7.00;4.00
69349;PMS5003;64554;43.452;4.934;2024-02-21T11:19:26;10.60;8.80;5.20
69349;PMS5003;64554;43.452;4.934;2024-02-21T11:21:54;9.60;5.60;4.00
69349;PMS5003;64554;43.452;4.934;2024-02-21T11:24:28;8.00;8.00;4.00
69349;PMS5003;64554;43.452;4.934;2024-02-21T11:29:42;6.00;6.00;3.40
69349;PMS5003;64554;43.452;4.934;2024-02-21T11:32:14;14.00;12.25;5.75
69349;PMS5003;64554;43.452;4.934;2024-02-21T11:34:41;6.00;6.00;5.00
69349;PMS5003;64554;43.452;4.934;2024-02-21T11:37:14;6.00;5.00;4.00
69349;PMS5003;64554;43.452;4.934;2024-02-21T11:39:44;7.00;7.00;5.00
69349;PMS5003;64554;43.452;4.934;2024-02-21T11:42:11;8.00;8.00;5.00
69349;PMS5003;64554;43.452;4.934;2024-02-21T11:44:38;6.00;6.00;4.40
69349;PMS5003;64554;43.452;4.934;2024-02-21T11:47:06;7.00;7.00;4.25
69349;PMS5003;64554;43.452;4.934;2024-02-21T11:49:44;8.00;7.50;6.00
69349;PMS5003;64554;43.452;4.934;2024-02-21T11:52:12;9.00;9.00;6.00
69349;PMS5003;64554;43.452;4.934;2024-02-21T11:54:41;7.00;7.00;4.00
69349;PMS5003;64554;43.452;4.934;2024-02-21T11:57:08;7.00;7.00;5.00
69349;PMS5003;64554;43.452;4.934;2024-02-21T11:59:35;8.00;6.40;5.00
69349;PMS5003;64554;43.452;4.934;2024-02-21T12:02:01;8.20;8.20;4.80
69349;PMS5003;64554;43.452;4.934;2024-02-21T12:04:30;8.00;6.50;4.50
69349;PMS5003;64554;43.452;4.934;2024-02-21T12:06:59;7.50;7.50;5.00
69349;PMS5003;64554;43.452;4.934;2024-02-21T12:09:26;10.50;6.25;5.25
69349;PMS5003;64554;43.452;4.934;2024-02-21T12:11:59;8.75;7.75;5.75
69349;PMS5003;64554;43.452;4.934;2024-02-21T12:14:27;8.00;6.50;4.25
69349;PMS5003;64554;43.452;4.934;2024-02-21T12:16:54;7.40;7.40;4.40
69349;PMS5003;64554;43.452;4.934;2024-02-21T12:19:21;9.00;7.00;4.00
69349;PMS5003;64554;43.452;4.934;2024-02-21T12:21:48;9.00;7.00;4.00
69349;PMS5003;64554;43.452;4.934;2024-02-21T12:24:22;6.50;6.50;5.00
69349;PMS5003;64554;43.452;4.934;2024-02-21T12:26:53;10.25;8.00;5.00
69349;PMS5003;64554;43.452;4.934;2024-02-21T12:29:20;6.60;6.60;5.00
69349;PMS5003;64554;43.452;4.934;2024-02-21T12:31:46;11.25;10.00;6.25
69349;PMS5003;64554;43.452;4.934;2024-02-21T12:34:14;12.20;9.20;6.60
69349;PMS5003;64554;43.452;4.934;2024-02-21T12:36:41;8.40;6.40;4.60
69349;PMS5003;64554;43.452;4.934;2024-02-21T12:39:13;9.00;9.00;6.00
69349;PMS5003;64554;43.452;4.934;2024-02-21T12:41:40;9.00;9.00;5.00
69349;PMS5003;64554;43.452;4.934;2024-02-21T12:44:10;9.00;7.00;5.00
69349;PMS5003;64554;43.452;4.934;2024-02-21T12:46:40;8.40;7.40;5.00
69349;PMS5003;64554;43.452;4.934;2024-02-21T12:49:06;10.00;9.00;5.00
69349;PMS5003;64554;43.452;4.934;2024-02-21T12:51:36;7.25;6.50;5.25
69349;PMS5003;64554;43.452;4.934;2024-02-21T12:54:04;7.00;5.25;4.00
69349;PMS5003;64554;43.452;4.934;2024-02-21T12:56:30;8.00;8.00;5.50
69349;PMS5003;64554;43.452;4.934;2024-02-21T12:58:57;11.25;9.00;7.00
69349;PMS5003;64554;43.452;4.934;2024-02-21T13:01:24;9.25;8.75;5.00
69349;PMS5003;64554;43.452;4.934;2024-02-21T13:03:50;10.80;10.00;6.00
69349;PMS5003;64554;43.452;4.934;2024-02-21T13:06:17;9.25;9.25;5.00
69349;PMS5003;64554;43.452;4.934;2024-02-21T13:08:45;8.50;8.50;5.00
69349;PMS5003;64554;43.452;4.934;2024-02-21T13:11:12;9.00;9.00;5.50
69349;PMS5003;64554;43.452;4.934;2024-02-21T13:13:39;7.00;7.00;5.00
69349;PMS5003;64554;43.452;4.934;2024-02-21T13:16:06;11.60;8.40;6.40
69349;PMS5003;64554;43.452;4.934;2024-02-21T13:18:34;13.20;11.20;6.00
69349;PMS5003;64554;43.452;4.934;2024-02-21T13:21:01;15.00;11.00;6.33
69349;PMS5003;64554;43.452;4.934;2024-02-21T13:23:27;11.50;9.75;7.25
69349;PMS5003;64554;43.452;4.934;2024-02-21T13:25:54;8.40;8.40;6.40
69349;PMS5003;64554;43.452;4.934;2024-02-21T13:28:20;9.20;9.20;6.00
69349;PMS5003;64554;43.452;4.934;2024-02-21T13:30:47;11.00;11.00;7.60
69349;PMS5003;64554;43.452;4.934;2024-02-21T13:33:14;11.60;11.60;7.00
69349;PMS5003;64554;43.452;4.934;2024-02-21T13:35:40;10.40;10.40;6.40
69349;PMS5003;64554;43.452;4.934;2024-02-21T13:38:07;11.75;11.75;7.75
69349;PMS5003;64554;43.452;4.934;2024-02-21T13:40:33;14.00;9.00;6.00
69349;PMS5003;64554;43.452;4.934;2024-02-21T13:43:00;11.00;10.00;8.00
69349;PMS5003;64554;43.452;4.934;2024-02-21T13:45:27;9.60;8.00;5.80
69349;PMS5003;64554;43.452;4.934;2024-02-21T13:47:54;9.25;9.00;6.50
69349;PMS5003;64554;43.452;4.934;2024-02-21T13:50:21;11.00;9.00;6.00
69349;PMS5003;64554;43.452;4.934;2024-02-21T13:52:47;10.40;10.00;7.00
69349;PMS5003;64554;43.452;4.934;2024-02-21T13:55:14;8.75;7.00;6.00
69349;PMS5003;64554;43.452;4.934;2024-02-21T13:57:41;10.00;9.50;5.00
69349;PMS5003;64554;43.452;4.934;2024-02-21T14:00:08;8.60;8.60;6.20
69349;PMS5003;64554;43.452;4.934;2024-02-21T14:02:37;6.40;6.40;4.20
69349;PMS5003;64554;43.452;4.934;2024-02-21T14:05:04;9.00;9.00;5.00
69349;PMS5003;64554;43.452;4.934;2024-02-21T14:07:32;8.00;8.00;5.75
69349;PMS5003;64554;43.452;4.934;2024-02-21T14:10:02;7.50;7.50;5.00
69349;PMS5003;64554;43.452;4.934;2024-02-21T14:12:29;12.80;11.00;7.80
69349;PMS5003;64554;43.452;4.934;2024-02-21T14:14:56;8.40;8.40;6.00